createdAt,value
2018-12-17T00:01:48.373Z,46.63
2018-12-17T00:04:19.632Z,47.80
2018-12-17T00:06:51.581Z,42.57
2018-12-17T00:09:20.781Z,44.80
2018-12-17T00:11:51.133Z,47.70
2018-12-17T00:14:20.309Z,46.90
2018-12-17T00:16:49.521Z,45.40
2018-12-17T00:19:19.218Z,45.27
2018-12-17T00:21:48.944Z,47.77
2018-12-17T00:24:18.650Z,47.00
2018-12-17T00:26:47.880Z,44.83
2018-12-17T00:29:19.072Z,47.93
2018-12-17T00:31:48.243Z,51.40
2018-12-17T00:34:17.463Z,50.27
2018-12-17T00:36:47.275Z,51.97
2018-12-17T00:39:17.294Z,49.70
2018-12-17T00:41:46.445Z,49.70
2018-12-17T00:44:15.582Z,49.80
2018-12-17T00:46:45.090Z,51.13
2018-12-17T00:49:14.564Z,49.90
2018-12-17T00:51:43.687Z,55.50
2018-12-17T00:54:12.902Z,53.87
2018-12-17T00:56:43.497Z,49.93
2018-12-17T00:59:12.921Z,51.43
2018-12-17T01:01:42.151Z,50.40
2018-12-17T01:04:12.450Z,49.53
2018-12-17T01:06:42.371Z,50.97
2018-12-17T01:09:14.797Z,47.67
2018-12-17T01:11:44.210Z,50.00
2018-12-17T01:14:13.897Z,49.50
2018-12-17T01:16:44.072Z,50.80
2018-12-17T01:19:13.256Z,51.83
2018-12-17T01:21:43.067Z,50.33
2018-12-17T01:24:12.227Z,49.60
2018-12-17T01:26:41.534Z,47.73
2018-12-17T01:29:11.555Z,53.07
2018-12-17T01:38:39.635Z,47.53
2018-12-17T01:41:09.058Z,48.80
2018-12-17T01:43:38.658Z,48.60
2018-12-17T01:46:07.839Z,52.10
2018-12-17T01:48:37.068Z,51.90
2018-12-17T01:51:06.548Z,47.90
2018-12-17T01:53:37.444Z,54.97
2018-12-17T01:56:06.680Z,50.73
2018-12-17T01:58:35.910Z,52.03
2018-12-17T02:01:05.928Z,52.37
2018-12-17T02:03:35.813Z,53.43
2018-12-17T02:06:06.729Z,54.23
2018-12-17T02:08:37.170Z,53.60
2018-12-17T02:11:06.763Z,53.93
2018-12-17T02:13:37.193Z,51.97
2018-12-17T02:16:06.695Z,48.17
2018-12-17T02:18:35.846Z,48.80
2018-12-17T02:21:05.007Z,46.43
2018-12-17T02:23:34.717Z,54.43
2018-12-17T02:26:04.357Z,52.93
2018-12-17T02:28:36.228Z,45.57
2018-12-17T02:31:05.178Z,54.20
2018-12-17T02:33:34.529Z,52.07
2018-12-17T02:36:05.769Z,45.80
2018-12-17T02:38:35.335Z,49.43
2018-12-17T02:41:04.585Z,51.20
2018-12-17T02:43:33.705Z,50.20
2018-12-17T02:46:03.849Z,50.00
2018-12-17T02:48:33.132Z,50.50
2018-12-17T02:51:03.006Z,48.50
2018-12-17T02:53:32.429Z,50.70
2018-12-17T02:56:01.923Z,49.67
2018-12-17T02:58:31.636Z,50.47
2018-12-17T03:01:00.794Z,50.90
2018-12-17T03:03:30.537Z,54.07
2018-12-17T03:05:59.692Z,49.57
2018-12-17T03:08:29.257Z,52.83
2018-12-17T03:10:58.689Z,50.30
2018-12-17T03:13:27.881Z,48.00
2018-12-17T03:16:00.864Z,49.13
2018-12-17T03:18:30.808Z,47.57
2018-12-17T03:21:00.403Z,49.03
2018-12-17T03:23:30.211Z,51.67
2018-12-17T03:26:02.125Z,49.87
2018-12-17T03:28:31.285Z,47.90
2018-12-17T03:31:00.472Z,50.33
2018-12-17T03:33:29.639Z,51.60
2018-12-17T03:36:02.559Z,53.60
2018-12-17T03:38:32.973Z,51.40
2018-12-17T03:41:02.536Z,47.27
2018-12-17T03:43:32.168Z,47.97
2018-12-17T03:46:01.878Z,50.93
2018-12-17T03:48:31.309Z,52.30
2018-12-17T03:51:01.050Z,52.53
2018-12-17T03:53:30.970Z,52.83
2018-12-17T03:56:00.581Z,48.80
2018-12-17T03:58:29.834Z,53.10
2018-12-17T04:00:59.807Z,50.93
2018-12-17T04:03:29.332Z,50.20
2018-12-17T04:05:59.029Z,47.53
2018-12-17T04:08:28.677Z,43.60
2018-12-17T04:10:58.209Z,48.30
2018-12-17T04:13:27.743Z,46.13
2018-12-17T04:15:57.544Z,48.03
2018-12-17T04:18:27.611Z,45.97
2018-12-17T04:20:57.061Z,55.37
2018-12-17T04:23:26.323Z,53.43
2018-12-17T04:25:57.622Z,47.90
2018-12-17T04:28:26.777Z,48.03
2018-12-17T04:30:56.024Z,45.70
2018-12-17T04:33:25.169Z,45.67
2018-12-17T04:35:54.262Z,47.37
2018-12-17T04:38:23.788Z,46.00
2018-12-17T04:40:52.967Z,42.87
2018-12-17T04:43:22.268Z,49.50
2018-12-17T04:45:51.803Z,46.30
2018-12-17T04:48:21.346Z,43.90
2018-12-17T04:50:50.680Z,46.30
2018-12-17T04:53:23.303Z,48.13
2018-12-17T04:55:52.797Z,50.43
2018-12-17T04:58:24.051Z,47.87
2018-12-17T05:00:53.538Z,45.67
2018-12-17T05:03:22.687Z,51.23
2018-12-17T05:05:52.421Z,49.93
2018-12-17T05:08:21.580Z,44.40
2018-12-17T05:10:50.825Z,43.53
2018-12-17T05:13:20.683Z,46.23
2018-12-17T05:15:49.885Z,42.17
2018-12-17T05:18:19.516Z,40.33
2018-12-17T05:20:49.079Z,40.33
2018-12-17T05:23:18.976Z,39.63
2018-12-17T05:25:48.157Z,42.43
2018-12-17T05:28:17.376Z,40.53
2018-12-17T05:30:46.512Z,44.13
2018-12-17T05:33:16.625Z,42.27
2018-12-17T05:35:46.418Z,40.77
2018-12-17T05:38:17.267Z,48.50
2018-12-17T05:40:47.011Z,39.23
2018-12-17T05:43:16.441Z,42.03
2018-12-17T05:45:46.349Z,39.97
2018-12-17T05:48:15.657Z,33.53
2018-12-17T05:50:44.972Z,36.83
2018-12-17T05:53:14.084Z,34.70
2018-12-17T05:55:44.317Z,36.10
2018-12-17T05:58:14.000Z,34.37
2018-12-17T06:00:44.171Z,33.33
2018-12-17T06:03:14.546Z,27.83
2018-12-17T06:05:44.647Z,27.67
2018-12-17T06:08:13.843Z,27.70
2018-12-17T06:10:43.067Z,25.53
2018-12-17T06:13:12.187Z,27.87
2018-12-17T06:15:42.014Z,25.17
2018-12-17T06:18:11.300Z,24.23
2018-12-17T06:20:40.479Z,23.53
2018-12-17T06:23:09.728Z,22.40
2018-12-17T06:25:38.862Z,21.97
2018-12-17T06:28:08.169Z,25.23
2018-12-17T06:30:38.234Z,21.07
2018-12-17T06:33:15.483Z,21.53
2018-12-17T06:35:40.926Z,24.73
2018-12-17T06:38:10.202Z,21.30
2018-12-17T06:40:39.984Z,22.93
2018-12-17T06:43:09.826Z,24.27
2018-12-17T06:45:39.382Z,22.53
2018-12-17T06:48:09.252Z,23.63
2018-12-17T06:50:38.987Z,23.10
2018-12-17T06:53:08.132Z,22.53
2018-12-17T06:55:37.265Z,22.97
2018-12-17T06:58:08.676Z,20.97
2018-12-17T07:00:42.192Z,22.60
2018-12-17T07:03:12.182Z,24.67
2018-12-17T07:05:41.338Z,24.53
2018-12-17T07:08:10.701Z,21.57
2018-12-17T07:10:40.599Z,21.90
2018-12-17T07:13:10.177Z,20.20
2018-12-17T07:15:40.454Z,21.37
2018-12-17T07:18:10.985Z,19.63
2018-12-17T07:20:47.611Z,20.97
2018-12-17T07:23:17.172Z,26.13
2018-12-17T07:25:46.824Z,24.73
2018-12-17T07:28:16.067Z,23.87
2018-12-17T07:30:45.786Z,23.93
2018-12-17T07:33:15.604Z,21.57
2018-12-17T07:35:45.500Z,22.07
2018-12-17T07:38:14.720Z,22.77
2018-12-17T07:40:49.148Z,23.97
2018-12-17T07:43:26.225Z,26.20
2018-12-17T07:45:55.866Z,25.77
2018-12-17T07:48:26.888Z,24.43
2018-12-17T07:50:56.416Z,22.43
2018-12-17T07:53:25.720Z,25.83
2018-12-17T07:55:58.372Z,23.63
2018-12-17T07:58:28.542Z,24.07
2018-12-17T08:00:58.406Z,25.33
2018-12-17T08:03:28.949Z,28.37
2018-12-17T08:05:58.176Z,30.07
2018-12-17T08:08:27.416Z,31.97
2018-12-17T08:10:57.539Z,33.70
2018-12-17T08:13:27.224Z,42.77
2018-12-17T08:15:56.399Z,50.23
2018-12-17T08:18:27.600Z,44.83
2018-12-17T08:20:57.669Z,44.07
2018-12-17T08:23:26.897Z,40.13
2018-12-17T08:25:56.513Z,39.47
2018-12-17T08:28:26.307Z,38.93
2018-12-17T08:30:55.763Z,37.87
2018-12-17T08:33:25.086Z,39.70
2018-12-17T08:35:54.365Z,42.77
2018-12-17T08:38:24.084Z,38.40
2018-12-17T08:40:53.432Z,39.10
2018-12-17T08:43:25.089Z,51.23
2018-12-17T08:46:05.426Z,50.23
2018-12-17T08:48:39.202Z,43.20
2018-12-17T08:51:08.336Z,37.97
2018-12-17T08:53:37.496Z,41.37
2018-12-17T08:56:07.690Z,39.47
2018-12-17T08:58:36.981Z,38.63
2018-12-17T09:01:06.167Z,37.87
2018-12-17T09:03:35.469Z,36.67
2018-12-17T09:06:04.815Z,35.77
2018-12-17T09:08:34.042Z,37.07
2018-12-17T09:11:03.257Z,35.07
2018-12-17T09:13:32.603Z,35.10
2018-12-17T09:16:02.243Z,37.63
2018-12-17T09:18:31.652Z,32.53
2018-12-17T09:21:00.905Z,36.73
2018-12-17T09:23:30.530Z,35.77
2018-12-17T09:25:59.704Z,33.10
2018-12-17T09:28:29.169Z,38.20
2018-12-17T09:30:58.776Z,37.17
2018-12-17T09:33:28.963Z,34.70
2018-12-17T09:35:58.301Z,35.60
2018-12-17T09:38:27.501Z,39.93
2018-12-17T09:40:57.221Z,39.43
2018-12-17T09:43:26.465Z,35.13
2018-12-17T09:45:55.717Z,35.27
2018-12-17T09:48:24.893Z,38.47
2018-12-17T09:50:54.345Z,39.93
2018-12-17T09:53:23.785Z,32.30
2018-12-17T09:55:53.041Z,38.53
2018-12-17T09:58:22.246Z,33.20
2018-12-17T10:00:51.638Z,38.27
2018-12-17T10:03:20.747Z,39.00
2018-12-17T10:05:50.075Z,37.63
2018-12-17T10:08:19.995Z,40.50
2018-12-17T10:10:49.863Z,34.93
2018-12-17T10:13:19.181Z,38.23
2018-12-17T10:15:48.472Z,38.10
2018-12-17T10:18:17.878Z,34.67
2018-12-17T10:20:47.477Z,37.93
2018-12-17T10:23:26.630Z,32.87
2018-12-17T10:28:59.622Z,33.93
2018-12-17T10:31:29.776Z,38.60
2018-12-17T10:34:22.807Z,34.47
2018-12-17T10:36:52.049Z,36.90
2018-12-17T10:39:21.618Z,37.37
2018-12-17T10:41:55.808Z,35.30
2018-12-17T10:44:29.023Z,34.60
2018-12-17T10:46:58.323Z,32.97
2018-12-17T10:49:34.142Z,33.40
2018-12-17T10:52:04.385Z,29.17
2018-12-17T10:54:34.487Z,47.13
2018-12-17T10:57:04.737Z,37.23
2018-12-17T11:02:19.383Z,34.93
2018-12-17T11:04:57.311Z,32.97
2018-12-17T11:07:27.692Z,34.00
2018-12-17T11:09:57.086Z,34.63
2018-12-17T11:12:28.577Z,32.93
2018-12-17T11:14:58.147Z,36.60
2018-12-17T11:17:27.429Z,36.50
2018-12-17T11:19:56.920Z,36.30
2018-12-17T11:22:27.412Z,32.03
2018-12-17T11:24:56.522Z,39.70
2018-12-17T11:27:26.215Z,34.03
2018-12-17T11:29:56.566Z,32.97
2018-12-17T11:32:26.838Z,35.10
2018-12-17T11:34:56.072Z,31.50
2018-12-17T11:37:25.618Z,30.00
2018-12-17T11:39:55.037Z,32.00
2018-12-17T11:42:24.817Z,34.03
2018-12-17T11:44:54.274Z,32.43
2018-12-17T11:47:25.604Z,31.97
2018-12-17T11:49:54.824Z,31.23
2018-12-17T11:52:25.797Z,35.53
2018-12-17T11:54:55.981Z,29.87
2018-12-17T11:57:50.374Z,30.83
2018-12-17T12:00:22.960Z,36.33
2018-12-17T12:02:58.929Z,37.93
2018-12-17T12:05:24.591Z,36.63
2018-12-17T12:07:53.830Z,37.03
2018-12-17T12:10:23.070Z,34.50
2018-12-17T12:12:53.471Z,33.60
2018-12-17T12:15:23.452Z,31.07
2018-12-17T12:17:53.502Z,34.40
2018-12-17T12:20:22.839Z,32.37
2018-12-17T12:22:52.421Z,33.20
2018-12-17T12:25:21.738Z,34.20
2018-12-17T12:27:50.993Z,33.10
2018-12-17T12:30:21.065Z,35.50
2018-12-17T12:32:50.658Z,33.90
2018-12-17T12:35:20.489Z,39.23
2018-12-17T12:37:49.795Z,37.80
2018-12-17T12:40:19.385Z,34.13
2018-12-17T12:42:51.778Z,40.27
2018-12-17T12:45:21.379Z,36.47
2018-12-17T12:47:51.886Z,32.40
2018-12-17T12:50:21.066Z,38.70
2018-12-17T12:52:50.232Z,39.23
2018-12-17T12:55:19.460Z,34.73
2018-12-17T12:57:48.758Z,37.87
2018-12-17T13:00:18.311Z,40.00
2018-12-17T13:02:47.541Z,45.40
2018-12-17T13:05:16.742Z,42.50
2018-12-17T13:07:47.949Z,41.17
2018-12-17T13:10:18.353Z,38.77
2018-12-17T13:12:47.695Z,35.50
2018-12-17T13:15:16.925Z,42.60
2018-12-17T13:17:46.141Z,37.83
2018-12-17T13:20:15.542Z,45.63
2018-12-17T13:22:45.410Z,38.23
2018-12-17T13:25:19.826Z,37.77
2018-12-17T13:27:50.523Z,40.40
2018-12-17T13:30:22.415Z,36.43
2018-12-17T13:33:09.210Z,42.57
2018-12-17T13:35:38.901Z,42.17
2018-12-17T13:38:09.827Z,40.30
2018-12-17T13:40:39.154Z,39.43
2018-12-17T13:43:08.490Z,41.27
2018-12-17T13:45:38.461Z,43.00
2018-12-17T13:48:08.655Z,41.63
2018-12-17T13:50:39.933Z,42.07
2018-12-17T13:53:14.377Z,46.67
2018-12-17T13:55:43.744Z,48.10
2018-12-17T13:58:14.392Z,48.90
2018-12-17T14:00:43.923Z,49.03
2018-12-17T14:03:14.898Z,43.73
2018-12-17T14:05:44.186Z,40.97
2018-12-17T14:08:13.838Z,43.63
2018-12-17T14:10:48.429Z,46.43
2018-12-17T14:13:17.620Z,43.77
2018-12-17T14:15:51.595Z,45.93
2018-12-17T14:18:26.395Z,42.13
2018-12-17T14:21:01.066Z,37.63
2018-12-17T14:23:30.255Z,44.73
2018-12-17T14:25:59.785Z,47.33
2018-12-17T14:28:29.012Z,47.27
2018-12-17T14:30:58.171Z,49.87
2018-12-17T14:33:27.288Z,48.67
2018-12-17T14:36:01.866Z,49.60
2018-12-17T14:38:31.039Z,49.00
2018-12-17T14:41:00.912Z,53.03
2018-12-17T14:43:30.454Z,49.03
2018-12-17T14:45:59.654Z,46.93
2018-12-17T14:48:28.855Z,51.77
2018-12-17T14:50:58.127Z,50.17
2018-12-17T14:53:27.405Z,50.90
2018-12-17T14:55:56.686Z,51.47
2018-12-17T14:58:25.896Z,50.03
2018-12-17T15:00:55.036Z,52.77
2018-12-17T15:03:24.262Z,55.43
2018-12-17T15:05:53.509Z,53.17
2018-12-17T15:08:23.035Z,58.20
2018-12-17T15:10:52.292Z,60.63
2018-12-17T15:13:22.605Z,53.50
2018-12-17T15:15:51.990Z,62.43
2018-12-17T15:18:21.354Z,59.40
2018-12-17T15:20:50.905Z,58.67
2018-12-17T15:23:20.244Z,56.63
2018-12-17T15:25:50.430Z,51.97
2018-12-17T15:28:20.272Z,54.43
2018-12-17T15:30:49.545Z,52.23
2018-12-17T15:33:18.802Z,53.93
2018-12-17T15:35:48.897Z,55.67
2018-12-17T15:38:18.574Z,59.07
2018-12-17T15:40:47.922Z,49.80
2018-12-17T15:43:17.596Z,45.60
2018-12-17T15:45:49.316Z,53.93
2018-12-17T15:48:20.879Z,56.77
2018-12-17T15:50:50.142Z,50.37
2018-12-17T15:53:19.556Z,53.93
2018-12-17T15:55:49.158Z,54.77
2018-12-17T15:58:18.352Z,54.23
2018-12-17T16:00:47.533Z,60.30
2018-12-17T16:03:16.801Z,56.60
2018-12-17T16:05:46.467Z,54.37
2018-12-17T16:08:15.670Z,53.93
2018-12-17T16:10:44.949Z,58.17
2018-12-17T16:13:15.213Z,59.50
2018-12-17T16:15:44.785Z,58.87
2018-12-17T16:18:14.117Z,61.57
2018-12-17T16:20:44.800Z,63.40
2018-12-17T16:23:14.248Z,57.47
2018-12-17T16:25:43.478Z,59.10
2018-12-17T16:28:12.640Z,60.17
2018-12-17T16:30:42.216Z,60.73
2018-12-17T16:33:11.786Z,66.07
2018-12-17T16:35:41.069Z,64.70
2018-12-17T16:38:10.220Z,63.17
2018-12-17T16:43:35.987Z,60.90
2018-12-17T16:46:09.306Z,70.00
2018-12-17T16:48:40.074Z,55.63
2018-12-17T16:51:10.955Z,69.17
2018-12-17T16:53:40.170Z,64.70
2018-12-17T16:56:10.405Z,67.10
2018-12-17T16:58:39.674Z,65.37
2018-12-17T17:01:15.543Z,63.10
2018-12-17T17:03:45.594Z,68.17
2018-12-17T17:06:14.811Z,70.13
2018-12-17T17:08:44.077Z,71.43
2018-12-17T17:11:13.829Z,71.90
2018-12-17T17:13:43.117Z,70.80
2018-12-17T17:16:12.659Z,76.80
2018-12-17T17:18:41.825Z,68.60
2018-12-17T17:21:11.055Z,69.40
2018-12-17T17:23:40.226Z,69.00
2018-12-17T17:26:09.459Z,65.53
2018-12-17T17:28:38.597Z,64.00
2018-12-17T17:31:08.257Z,62.57
2018-12-17T17:33:37.487Z,67.27
2018-12-17T17:36:06.657Z,74.60
2018-12-17T17:38:37.006Z,66.73
2018-12-17T17:41:06.492Z,61.70
2018-12-17T17:43:35.656Z,67.57
2018-12-17T17:46:04.825Z,70.77
2018-12-17T17:48:33.959Z,76.70
2018-12-17T17:51:04.286Z,66.57
2018-12-17T17:53:33.432Z,71.20
2018-12-17T17:56:03.158Z,80.47
2018-12-17T17:58:32.526Z,69.83
2018-12-17T18:01:02.030Z,68.13
2018-12-17T18:03:32.382Z,64.73
2018-12-17T18:06:01.528Z,79.47
2018-12-17T18:08:31.043Z,71.77
2018-12-17T18:11:00.188Z,69.13
2018-12-17T18:13:29.346Z,67.50
2018-12-17T18:15:59.033Z,76.23
2018-12-17T18:18:28.395Z,73.03
2018-12-17T18:20:57.497Z,72.60
2018-12-17T18:23:26.691Z,64.70
2018-12-17T18:25:55.815Z,67.30
2018-12-17T18:28:25.035Z,68.50
2018-12-17T18:30:55.063Z,68.50
2018-12-17T18:33:24.573Z,77.37
2018-12-17T18:35:53.760Z,67.53
2018-12-17T18:38:22.955Z,70.07
2018-12-17T18:40:52.771Z,64.70
2018-12-17T18:43:22.210Z,69.83
2018-12-17T18:45:52.167Z,68.67
2018-12-17T18:48:22.356Z,68.47
2018-12-17T18:50:51.753Z,75.90
2018-12-17T18:53:20.990Z,75.30
2018-12-17T18:55:50.703Z,73.57
2018-12-17T18:58:19.906Z,70.27
2018-12-17T19:00:49.707Z,65.70
2018-12-17T19:03:19.257Z,71.87
2018-12-17T19:05:48.568Z,68.20
2018-12-17T19:08:18.015Z,71.77
2018-12-17T19:10:51.784Z,67.10
2018-12-17T19:13:21.998Z,72.03
2018-12-17T19:15:51.273Z,56.93
2018-12-17T19:18:20.650Z,69.43
2018-12-17T19:20:50.445Z,67.73
2018-12-17T19:23:25.013Z,76.77
2018-12-17T19:25:54.269Z,70.47
2018-12-17T19:28:23.577Z,68.73
2018-12-17T19:30:52.677Z,70.60
2018-12-17T19:33:21.934Z,71.47
2018-12-17T19:35:51.288Z,67.23
2018-12-17T19:38:20.643Z,64.93
2018-12-17T19:40:49.802Z,73.23
2018-12-17T19:43:19.004Z,68.17
2018-12-17T19:45:48.144Z,74.47
2018-12-17T19:48:17.350Z,76.70
2018-12-17T19:50:46.637Z,70.13
2018-12-17T19:53:15.773Z,66.57
2018-12-17T19:55:45.315Z,68.90
2018-12-17T19:58:14.441Z,81.00
2018-12-17T20:00:44.228Z,72.77
2018-12-17T20:03:13.564Z,72.67
2018-12-17T20:05:42.707Z,66.50
2018-12-17T20:08:11.890Z,70.70
2018-12-17T20:10:41.219Z,66.20
2018-12-17T20:13:10.381Z,73.73
2018-12-17T20:15:39.602Z,75.13
2018-12-17T20:18:08.885Z,70.07
2018-12-17T20:20:38.061Z,70.90
2018-12-17T20:23:07.218Z,65.17
2018-12-17T20:25:36.462Z,73.47
2018-12-17T20:28:05.674Z,71.40
2018-12-17T20:30:35.531Z,66.07
2018-12-17T20:33:04.827Z,67.90
2018-12-17T20:35:33.978Z,73.20
2018-12-17T20:38:04.561Z,72.77
2018-12-17T20:40:33.811Z,75.37
2018-12-17T20:43:03.016Z,64.73
2018-12-17T20:45:32.235Z,80.37
2018-12-17T20:48:02.048Z,70.87
2018-12-17T20:50:37.794Z,75.07
2018-12-17T20:53:09.766Z,62.47
2018-12-17T20:58:21.458Z,66.43
2018-12-17T21:00:50.671Z,67.43
2018-12-17T21:03:19.818Z,62.03
2018-12-17T21:05:48.971Z,61.70
2018-12-17T21:08:18.271Z,64.33
2018-12-17T21:10:47.453Z,65.80
2018-12-17T21:13:17.040Z,58.23
2018-12-17T21:15:46.497Z,59.50
2018-12-17T21:18:16.870Z,63.67
2018-12-17T21:20:46.204Z,69.73
2018-12-17T21:23:19.528Z,77.07
2018-12-17T21:25:50.045Z,72.83
2018-12-17T21:28:20.317Z,71.97
2018-12-17T21:30:49.924Z,67.03
2018-12-17T21:33:20.125Z,67.60
2018-12-17T21:35:49.367Z,65.53
2018-12-17T21:38:19.028Z,67.33
2018-12-17T21:40:48.443Z,60.83
2018-12-17T21:43:17.700Z,62.87
2018-12-17T21:45:47.001Z,63.80
2018-12-17T21:48:17.174Z,62.10
2018-12-17T21:50:46.962Z,62.10
2018-12-17T21:53:17.005Z,54.03
2018-12-17T21:55:46.315Z,61.87
2018-12-17T21:58:15.900Z,62.57
2018-12-17T22:00:45.398Z,56.43
2018-12-17T22:03:14.659Z,59.40
2018-12-17T22:07:08.720Z,65.73
2018-12-17T22:09:38.316Z,56.20
2018-12-17T22:12:08.383Z,61.30
2018-12-17T22:14:37.775Z,62.67
2018-12-17T22:17:08.428Z,59.57
2018-12-17T22:19:37.609Z,69.40
2018-12-17T22:22:07.010Z,66.30
2018-12-17T22:24:36.210Z,65.03
2018-12-17T22:27:05.509Z,59.97
2018-12-17T22:29:35.680Z,68.13
2018-12-17T22:32:04.962Z,64.30
2018-12-17T22:34:34.739Z,57.60
2018-12-17T22:37:04.000Z,58.00
2018-12-17T22:39:33.703Z,54.93
2018-12-17T22:42:04.276Z,60.03
2018-12-17T22:44:34.248Z,62.40
2018-12-17T22:47:04.410Z,55.80
2018-12-17T22:49:33.984Z,52.57
2018-12-17T22:52:03.242Z,51.07
2018-12-17T22:54:32.410Z,51.47
2018-12-17T22:57:02.035Z,51.00
2018-12-17T22:59:31.683Z,54.03
2018-12-17T23:02:01.707Z,45.43
2018-12-17T23:04:31.209Z,48.23
2018-12-17T23:07:00.461Z,49.93
2018-12-17T23:09:40.970Z,45.30
2018-12-17T23:12:21.397Z,50.90
2018-12-17T23:15:01.562Z,46.00
2018-12-17T23:17:40.777Z,46.40
2018-12-17T23:20:12.168Z,53.67
2018-12-17T23:22:44.550Z,51.23
2018-12-17T23:25:16.499Z,54.07
2018-12-17T23:27:50.417Z,57.23
2018-12-17T23:30:22.685Z,56.47
2018-12-17T23:32:52.320Z,50.33
2018-12-17T23:35:21.591Z,47.77
2018-12-17T23:37:52.519Z,55.13
2018-12-17T23:40:22.382Z,48.07
2018-12-17T23:42:51.625Z,51.20
2018-12-17T23:45:20.999Z,55.37
2018-12-17T23:47:51.084Z,44.63
2018-12-17T23:50:21.181Z,51.43
2018-12-17T23:52:50.714Z,51.23
2018-12-17T23:55:20.008Z,52.87
2018-12-17T23:57:50.711Z,49.93
